Zim Chicago — A8SI9 — position and weather

sailwx.info

Track history (hours):
 
Tides and Currents Weather Stations Pressure Air Temp Water Temp Dewpoint Dewpoint Depression Visibility Wind Speed Wind Dir Waves Ship Positions

Zim Chicago

Last reported at 2014-Nov-15 05:21 UTC. Time now 2014-Nov-28 00:20 UTC.
Position N 23°58' E 118°40'.
Warning: this ship's position is 12 days out of date.

Length 334 m; draft 11.4 m.

Type: Cargo ship. MMSI: 636014223.

Date/timePositionNaut miles runAvg speedWind from/ knotsBaromVisibWave heightAir tempDewpointWater temp
2014-Nov-15 05:21N 23°58' E 118°40'1114.1
2014-Nov-15 04:33N 23°53' E 118°29'1312.8
2014-Nov-15 03:33N 23°45' E 118°17'8312.9
2014-Nov-14 21:07N 22°56' E 117°05'712.7
2014-Nov-14 20:33N 22°52' E 116°59'1413.0
2014-Nov-14 19:30N 22°43' E 116°48'150 4.2
2014-Nov-13 07:24N 22°14' E 114°08'6 7.7
2014-Nov-13 06:33N 22°21' E 114°07'0 0.1
2014-Nov-13 05:26N 22°21' E 114°07'0 0.0
2014-Nov-13 04:26N 22°21' E 114°07'0 0.0
2014-Nov-13 01:32N 22°21' E 114°07'0 0.0
2014-Nov-12 22:20N 22°21' E 114°07'0 0.0
2014-Nov-12 17:32N 22°21' E 114°07'0 0.0
2014-Nov-12 15:26N 22°21' E 114°07'0 0.0
2014-Nov-12 14:32N 22°21' E 114°07'1 0.4
2014-Nov-12 11:33N 22°20' E 114°07'11 8.8
2014-Nov-12 10:15N 22°22' E 113°55'5 7.7
2014-Nov-12 09:33N 22°27' E 113°53'6 2.3
2014-Nov-12 07:05N 22°32' E 113°51'0 0.0
2014-Nov-12 06:23N 22°32' E 113°51'0 0.0
2014-Nov-12 05:29N 22°32' E 113°51'0 0.0
2014-Nov-12 04:05N 22°32' E 113°51'0 0.0
2014-Nov-12 03:17N 22°32' E 113°51'0 0.0
2014-Nov-12 00:17N 22°32' E 113°51'0 0.0
2014-Nov-11 23:23N 22°32' E 113°51'0 0.0
2014-Nov-11 22:23N 22°32' E 113°51'0 0.0
2014-Nov-11 21:05N 22°32' E 113°51'0 0.0
2014-Nov-11 18:11N 22°32' E 113°51'0 0.1
2014-Nov-11 17:33N 22°32' E 113°51'8 8.4
2014-Nov-11 16:33N 22°24' E 113°54'9 8.9
2014-Nov-11 15:33N 22°21' E 114°03'1410.0
2014-Nov-11 14:08N 22°10' E 114°13'  
Track history (hours):
 
Tides and Currents Weather Stations Pressure Air Temp Water Temp Dewpoint Dewpoint Depression Visibility Wind Speed Wind Dir Waves Ship Positions

Zim Chicago

Last reported at 2014-Nov-15 05:21 UTC. Time now 2014-Nov-28 00:20 UTC.
Position N 23°58' E 118°40'.
Warning: this ship's position is 12 days out of date.

Length 334 m; draft 11.4 m.

Type: Cargo ship. MMSI: 636014223.

Date/timePositionNaut miles runAvg speedWind from/ knotsBaromVisibWave heightAir tempDewpointWater temp
2014-Nov-15 05:21N 23°58' E 118°40'1114.1
2014-Nov-15 04:33N 23°53' E 118°29'1312.8
2014-Nov-15 03:33N 23°45' E 118°17'8312.9
2014-Nov-14 21:07N 22°56' E 117°05'712.7
2014-Nov-14 20:33N 22°52' E 116°59'1413.0
2014-Nov-14 19:30N 22°43' E 116°48'150 4.2
2014-Nov-13 07:24N 22°14' E 114°08'6 7.7
2014-Nov-13 06:33N 22°21' E 114°07'0 0.1
2014-Nov-13 05:26N 22°21' E 114°07'0 0.0
2014-Nov-13 04:26N 22°21' E 114°07'0 0.0
2014-Nov-13 01:32N 22°21' E 114°07'0 0.0
2014-Nov-12 22:20N 22°21' E 114°07'0 0.0
2014-Nov-12 17:32N 22°21' E 114°07'0 0.0
2014-Nov-12 15:26N 22°21' E 114°07'0 0.0
2014-Nov-12 14:32N 22°21' E 114°07'1 0.4
2014-Nov-12 11:33N 22°20' E 114°07'11 8.8
2014-Nov-12 10:15N 22°22' E 113°55'5 7.7
2014-Nov-12 09:33N 22°27' E 113°53'6 2.3
2014-Nov-12 07:05N 22°32' E 113°51'0 0.0
2014-Nov-12 06:23N 22°32' E 113°51'0 0.0
2014-Nov-12 05:29N 22°32' E 113°51'0 0.0
2014-Nov-12 04:05N 22°32' E 113°51'0 0.0
2014-Nov-12 03:17N 22°32' E 113°51'0 0.0
2014-Nov-12 00:17N 22°32' E 113°51'0 0.0
2014-Nov-11 23:23N 22°32' E 113°51'0 0.0
2014-Nov-11 22:23N 22°32' E 113°51'0 0.0
2014-Nov-11 21:05N 22°32' E 113°51'0 0.0
2014-Nov-11 18:11N 22°32' E 113°51'0 0.1
2014-Nov-11 17:33N 22°32' E 113°51'8 8.4
2014-Nov-11 16:33N 22°24' E 113°54'9 8.9
2014-Nov-11 15:33N 22°21' E 114°03'1410.0
2014-Nov-11 14:08N 22°10' E 114°13'  

Dump ship's entire track history